Time;durP1;ratioP1;P1;durP2;ratioP2;P2;SDS_P1;SDS_P2;PMS_P1;PMS_P2;Temp;Humidity;BMP_temperature;BMP_pressure;BME280_temperature;BME280_humidity;BME280_pressure;Samples;Min_cycle;Max_cycle;Signal;HPM_P1;HPM_P2
2022/06/11 00:00:04;;;;;;;22.63;15.00;;;;;;;;;;5067285;28;20048;-69
2022/06/11 00:02:30;;;;;;;22.77;13.98;;;;;;;;;;5067784;28;20040;-69
2022/06/11 00:04:56;;;;;;;23.73;15.38;;;;;;;;;;5069008;28;20039;-69
2022/06/11 00:07:23;;;;;;;22.63;15.30;;;;;;;;;;5064839;28;20494;-69
2022/06/11 00:09:50;;;;;;;26.83;17.00;;;;;;;;;;5065289;28;20138;-68
2022/06/11 00:12:17;;;;;;;20.98;16.42;;;;;;;;;;5069097;28;20094;-68
2022/06/11 00:14:44;;;;;;;25.65;17.88;;;;;;;;;;5067979;28;20036;-69
2022/06/11 00:17:12;;;;;;;23.30;17.38;;;;;;;;;;5068757;28;20057;-69
2022/06/11 00:19:39;;;;;;;20.20;15.00;;;;;;;;;;5068384;28;20052;-68
2022/06/11 00:22:06;;;;;;;20.35;15.10;;;;;;;;;;5050536;28;20149;-68
2022/06/11 00:24:32;;;;;;;22.77;17.05;;;;;;;;;;5064548;28;20131;-69
2022/06/11 00:27:00;;;;;;;20.50;15.38;;;;;;;;;;5067470;28;20144;-68
2022/06/11 00:29:28;;;;;;;17.17;14.73;;;;;;;;;;5066931;28;20048;-68
2022/06/11 00:31:54;;;;;;;19.77;16.27;;;;;;;;;;5067142;28;20040;-68
2022/06/11 00:34:20;;;;;;;24.42;15.85;;;;;;;;;;5067432;28;20049;-69
2022/06/11 00:36:47;;;;;;;21.23;16.63;;;;;;;;;;5059332;28;20091;-68
2022/06/11 00:39:15;;;;;;;24.70;16.80;;;;;;;;;;5049376;28;20059;-69
2022/06/11 00:41:44;;;;;;;24.85;16.52;;;;;;;;;;5047902;28;20053;-69
2022/06/11 00:44:10;;;;;;;19.33;15.98;;;;;;;;;;5047615;28;20087;-70
2022/06/11 00:46:54;;;;;;;23.23;15.27;;;;;;;;;;5031349;28;20045;-69
2022/06/11 00:49:30;;;;;;;20.08;14.35;;;;;;;;;;5047991;28;20084;-69
2022/06/11 00:52:03;;;;;;;22.67;13.40;;;;;;;;;;5049338;28;20045;-68
2022/06/11 00:54:30;;;;;;;18.33;13.43;;;;;;;;;;5047926;28;20505;-68
2022/06/11 00:56:57;;;;;;;22.85;13.93;;;;;;;;;;5068784;28;20546;-68
2022/06/11 00:59:35;;;;;;;18.80;14.25;;;;;;;;;;5068304;28;20049;-68
2022/06/11 01:02:01;;;;;;;22.02;14.45;;;;;;;;;;5068259;28;20536;-68
2022/06/11 01:04:40;;;;;;;18.85;13.40;;;;;;;;;;5066891;28;20044;-68
2022/06/11 01:07:24;;;;;;;18.88;12.68;;;;;;;;;;5067194;28;20493;-68
2022/06/11 01:10:08;;;;;;;21.70;13.80;;;;;;;;;;5070285;28;20488;-69
2022/06/11 01:12:34;;;;;;;22.98;14.07;;;;;;;;;;5104050;28;20076;-68
2022/06/11 01:15:21;;;;;;;21.40;13.85;;;;;;;;;;5070839;28;20129;-68
2022/06/11 01:17:56;;;;;;;21.83;14.07;;;;;;;;;;5067664;28;20049;-68
2022/06/11 01:20:39;;;;;;;20.88;13.55;;;;;;;;;;5068178;28;20048;-68
2022/06/11 01:23:24;;;;;;;16.55;12.90;;;;;;;;;;5052831;28;20057;-68
2022/06/11 01:26:08;;;;;;;28.92;15.25;;;;;;;;;;5065054;28;20481;-68
2022/06/11 01:28:53;;;;;;;22.08;13.70;;;;;;;;;;5070709;28;20468;-68
2022/06/11 01:31:22;;;;;;;17.27;13.48;;;;;;;;;;5071697;28;20044;-68
2022/06/11 01:33:48;;;;;;;;;;;;;;;;;;5070611;28;20123;-69
2022/06/11 01:36:14;;;;;;;17.40;12.25;;;;;;;;;;5071684;28;19971;-67
2022/06/11 01:38:40;;;;;;;21.17;12.70;;;;;;;;;;5071095;28;20516;-68
2022/06/11 01:41:06;;;;;;;24.08;13.90;;;;;;;;;;5069513;28;20381;-68
2022/06/11 01:43:34;;;;;;;19.88;13.02;;;;;;;;;;5071150;28;20052;-68
2022/06/11 01:46:01;;;;;;;21.50;13.05;;;;;;;;;;5071409;28;20048;-68
2022/06/11 01:48:27;;;;;;;20.73;13.02;;;;;;;;;;5071000;28;20516;-68
2022/06/11 01:51:08;;;;;;;20.05;12.98;;;;;;;;;;5069836;28;20045;-68
2022/06/11 01:53:43;;;;;;;19.58;13.35;;;;;;;;;;5071013;28;20511;-68
2022/06/11 01:56:20;;;;;;;20.77;13.30;;;;;;;;;;5070906;28;20045;-68
2022/06/11 01:59:13;;;;;;;22.83;12.55;;;;;;;;;;5052666;28;20113;-68
2022/06/11 02:01:58;;;;;;;24.00;14.38;;;;;;;;;;5042582;28;20118;-69
2022/06/11 02:04:31;;;;;;;23.75;14.55;;;;;;;;;;5050466;28;20049;-68
2022/06/11 02:07:03;;;;;;;30.08;15.10;;;;;;;;;;5063578;28;20044;-68
2022/06/11 02:09:50;;;;;;;18.08;13.00;;;;;;;;;;5063084;28;20068;-68
2022/06/11 02:12:24;;;;;;;17.45;12.63;;;;;;;;;;5052016;28;20049;-69
2022/06/11 02:14:54;;;;;;;19.65;14.13;;;;;;;;;;5050129;28;20511;-69
2022/06/11 02:17:26;;;;;;;26.73;14.75;;;;;;;;;;5051639;28;20513;-69
2022/06/11 02:19:58;;;;;;;28.90;14.85;;;;;;;;;;5051136;28;20348;-69
2022/06/11 02:22:28;;;;;;;23.60;12.65;;;;;;;;;;5050274;28;20049;-69
2022/06/11 02:24:56;;;;;;;27.33;14.00;;;;;;;;;;5049840;28;20119;-68
2022/06/11 02:27:29;;;;;;;22.17;13.63;;;;;;;;;;5051462;28;20130;-69
2022/06/11 02:29:55;;;;;;;25.50;14.23;;;;;;;;;;5101534;28;20076;-69
2022/06/11 02:32:22;;;;;;;23.70;13.55;;;;;;;;;;5044434;28;20049;-68
2022/06/11 02:34:59;;;;;;;33.00;16.45;;;;;;;;;;5055857;28;20132;-68
2022/06/11 02:37:36;;;;;;;30.15;13.80;;;;;;;;;;5033991;28;20463;-68
2022/06/11 02:40:06;;;;;;;23.55;15.82;;;;;;;;;;5032783;28;20195;-69
2022/06/11 02:42:32;;;;;;;29.10;18.67;;;;;;;;;;5062675;28;20048;-69
2022/06/11 02:44:58;;;;;;;30.42;20.08;;;;;;;;;;5052208;28;20128;-69
2022/06/11 02:47:24;;;;;;;34.28;19.80;;;;;;;;;;5066404;28;20057;-68
2022/06/11 02:49:51;;;;;;;27.73;18.60;;;;;;;;;;5060582;28;20051;-69
2022/06/11 02:52:19;;;;;;;33.47;21.88;;;;;;;;;;5055408;28;20080;-68
2022/06/11 02:54:45;;;;;;;37.58;21.70;;;;;;;;;;5054979;28;20492;-68
2022/06/11 02:57:14;;;;;;;27.85;20.55;;;;;;;;;;5070482;28;20485;-68
2022/06/11 02:59:40;;;;;;;;;;;;;;;;;;5050658;28;20049;-69
2022/06/11 03:02:06;;;;;;;33.85;21.23;;;;;;;;;;5056111;28;19920;-69
2022/06/11 03:04:32;;;;;;;34.63;20.08;;;;;;;;;;5070135;28;20051;-68
2022/06/11 03:06:59;;;;;;;33.05;20.10;;;;;;;;;;5069383;28;20513;-69
2022/06/11 03:09:26;;;;;;;29.88;20.38;;;;;;;;;;5069898;28;20504;-68
2022/06/11 03:11:52;;;;;;;28.73;18.98;;;;;;;;;;5068617;28;20076;-69
2022/06/11 03:14:18;;;;;;;31.17;20.33;;;;;;;;;;5070147;28;20083;-71
2022/06/11 03:16:44;;;;;;;28.90;18.88;;;;;;;;;;5068484;28;20144;-68
2022/06/11 03:19:11;;;;;;;27.95;18.42;;;;;;;;;;5068424;28;20106;-68
2022/06/11 03:21:37;;;;;;;24.25;17.48;;;;;;;;;;5069073;28;20123;-69
2022/06/11 03:24:04;;;;;;;26.75;17.05;;;;;;;;;;5068338;28;20111;-68
2022/06/11 03:26:30;;;;;;;28.45;17.10;;;;;;;;;;5055149;28;20076;-68
2022/06/11 03:28:56;;;;;;;25.75;16.50;;;;;;;;;;5068229;28;20044;-68
2022/06/11 03:31:22;;;;;;;67.07;23.58;;;;;;;;;;5067544;28;20059;-68
2022/06/11 03:33:48;;;;;;;25.85;16.02;;;;;;;;;;5067629;28;20040;-68
2022/06/11 03:36:15;;;;;;;19.40;13.50;;;;;;;;;;5067656;28;20110;-68
2022/06/11 03:38:42;;;;;;;45.55;16.92;;;;;;;;;;5060979;28;20041;-68
2022/06/11 03:41:09;;;;;;;17.60;12.70;;;;;;;;;;5032180;28;20090;-69
2022/06/11 03:43:35;;;;;;;20.85;11.85;;;;;;;;;;5049675;28;20041;-68
2022/06/11 03:46:01;;;;;;;16.73;11.68;;;;;;;;;;5048392;28;20554;-69
2022/06/11 03:48:30;;;;;;;20.25;11.05;;;;;;;;;;5048381;28;20045;-69
2022/06/11 03:50:57;;;;;;;32.17;14.13;;;;;;;;;;5047837;28;20281;-69
2022/06/11 03:53:24;;;;;;;19.77;11.00;;;;;;;;;;5050124;28;20504;-68
2022/06/11 03:55:50;;;;;;;17.35;10.30;;;;;;;;;;5049728;28;20532;-68
2022/06/11 03:58:18;;;;;;;16.65;10.13;;;;;;;;;;5048465;28;20457;-68
2022/06/11 04:03:30;;;;;;;13.60;8.63;;;;;;;;;;5049663;28;20045;-68
2022/06/11 04:05:56;;;;;;;14.85;8.32;;;;;;;;;;5031694;28;20048;-68
2022/06/11 04:08:23;;;;;;;20.00;9.00;;;;;;;;;;5049013;28;20143;-67
2022/06/11 04:10:49;;;;;;;16.15;8.05;;;;;;;;;;5048266;28;20044;-68
2022/06/11 04:13:16;;;;;;;14.65;7.78;;;;;;;;;;5048614;28;20045;-68
2022/06/11 04:15:42;;;;;;;12.13;7.60;;;;;;;;;;5049832;28;20099;-69
2022/06/11 04:18:15;;;;;;;12.43;6.82;;;;;;;;;;5049821;28;20048;-68
2022/06/11 04:20:41;;;;;;;12.65;6.68;;;;;;;;;;5031217;28;20094;-69
2022/06/11 04:23:07;;;;;;;19.05;7.00;;;;;;;;;;5064017;28;20049;-68
2022/06/11 04:25:34;;;;;;;10.73;5.95;;;;;;;;;;5068461;28;20044;-68
2022/06/11 04:28:00;;;;;;;36.88;11.75;;;;;;;;;;5067696;28;20102;-68
2022/06/11 04:30:27;;;;;;;21.27;7.35;;;;;;;;;;5067847;28;20040;-68
2022/06/11 04:32:52;;;;;;;18.98;6.93;;;;;;;;;;5048173;28;20088;-68
2022/06/11 04:35:19;;;;;;;16.38;6.10;;;;;;;;;;5049039;28;20095;-69
2022/06/11 04:37:45;;;;;;;12.65;5.72;;;;;;;;;;5067154;28;20097;-69
2022/06/11 04:40:13;;;;;;;14.90;5.30;;;;;;;;;;5047949;28;20490;-68
2022/06/11 04:42:39;;;;;;;14.48;5.53;;;;;;;;;;5065071;28;20465;-69
2022/06/11 04:45:05;;;;;;;13.48;5.43;;;;;;;;;;5072714;28;20044;-69
2022/06/11 04:47:32;;;;;;;29.25;9.85;;;;;;;;;;5071361;28;20091;-69
2022/06/11 04:49:59;;;;;;;16.30;5.93;;;;;;;;;;5070713;28;20076;-69
2022/06/11 04:52:26;;;;;;;11.95;6.05;;;;;;;;;;5072168;28;20052;-69
2022/06/11 04:54:53;;;;;;;13.60;6.80;;;;;;;;;;5072702;28;20399;-69
2022/06/11 04:57:20;;;;;;;13.65;6.60;;;;;;;;;;5059716;28;20049;-69
2022/06/11 04:59:46;;;;;;;11.68;6.40;;;;;;;;;;5051986;28;20461;-69
2022/06/11 05:02:12;;;;;;;16.02;6.45;;;;;;;;;;5053008;28;20040;-69
2022/06/11 05:04:38;;;;;;;14.90;7.40;;;;;;;;;;5051084;28;20111;-69
2022/06/11 05:07:05;;;;;;;13.65;7.43;;;;;;;;;;5068734;28;20086;-69
2022/06/11 05:09:31;;;;;;;16.35;7.40;;;;;;;;;;5066327;28;20052;-69
2022/06/11 05:11:57;;;;;;;14.23;7.03;;;;;;;;;;5052058;28;20037;-69
2022/06/11 05:14:24;;;;;;;15.23;7.28;;;;;;;;;;5055442;28;20408;-69
2022/06/11 05:16:50;;;;;;;13.63;7.10;;;;;;;;;;5071959;28;20055;-69
2022/06/11 05:19:18;;;;;;;51.72;15.95;;;;;;;;;;5070185;28;20047;-69
2022/06/11 05:21:44;;;;;;;15.73;7.60;;;;;;;;;;5062570;28;20049;-69
2022/06/11 05:24:10;;;;;;;14.93;7.55;;;;;;;;;;5052524;28;20107;-69
2022/06/11 05:26:39;;;;;;;16.67;7.13;;;;;;;;;;5052666;28;20052;-69
2022/06/11 05:29:06;;;;;;;14.68;6.85;;;;;;;;;;5051066;28;20045;-69
2022/06/11 05:31:33;;;;;;;18.42;7.18;;;;;;;;;;5051368;28;20049;-69
2022/06/11 05:33:59;;;;;;;17.25;7.10;;;;;;;;;;5062755;28;20040;-68
2022/06/11 05:36:25;;;;;;;16.33;6.60;;;;;;;;;;5066506;28;20353;-68
2022/06/11 05:38:51;;;;;;;18.55;6.55;;;;;;;;;;5069923;28;20045;-68
2022/06/11 05:41:17;;;;;;;15.27;6.35;;;;;;;;;;5067274;28;20040;-69
2022/06/11 05:43:44;;;;;;;14.70;6.18;;;;;;;;;;5066202;28;20045;-69
2022/06/11 05:46:12;;;;;;;15.10;5.82;;;;;;;;;;5066371;28;20508;-67
2022/06/11 05:48:41;;;;;;;16.52;6.55;;;;;;;;;;5061816;28;20051;-69
2022/06/11 05:51:10;;;;;;;14.38;5.90;;;;;;;;;;5068912;28;20040;-69
2022/06/11 05:53:37;;;;;;;14.35;6.15;;;;;;;;;;5066950;28;20051;-68
2022/06/11 05:56:04;;;;;;;13.90;6.32;;;;;;;;;;5052330;28;20084;-68
2022/06/11 05:58:33;;;;;;;15.32;6.63;;;;;;;;;;5051963;28;20106;-69
2022/06/11 06:00:59;;;;;;;15.38;5.90;;;;;;;;;;5062185;28;20534;-69
2022/06/11 06:03:26;;;;;;;20.70;7.18;;;;;;;;;;5067076;28;20447;-69
2022/06/11 06:05:52;;;;;;;17.00;6.03;;;;;;;;;;5067478;28;20401;-69
2022/06/11 06:08:18;;;;;;;12.68;6.13;;;;;;;;;;5067019;28;20497;-69
2022/06/11 06:10:44;;;;;;;14.38;5.38;;;;;;;;;;5063588;28;20132;-69
2022/06/11 06:15:54;;;;;;;17.02;5.35;;;;;;;;;;5064957;28;20071;-69
2022/06/11 06:18:21;;;;;;;16.00;5.15;;;;;;;;;;5057281;28;20044;-69
2022/06/11 06:20:47;;;;;;;12.68;4.60;;;;;;;;;;5066952;28;20388;-68
2022/06/11 06:23:13;;;;;;;16.92;4.93;;;;;;;;;;5067289;28;20488;-68
2022/06/11 06:25:39;;;;;;;17.95;5.43;;;;;;;;;;5066209;28;20124;-68
2022/06/11 06:28:06;;;;;;;13.18;4.50;;;;;;;;;;5066066;28;20382;-69
2022/06/11 06:30:32;;;;;;;16.90;5.38;;;;;;;;;;5056693;28;20052;-68
2022/06/11 06:32:58;;;;;;;19.13;5.50;;;;;;;;;;5051656;28;20045;-69
2022/06/11 06:35:24;;;;;;;17.02;5.75;;;;;;;;;;5051495;28;20095;-69
2022/06/11 06:37:50;;;;;;;16.45;5.07;;;;;;;;;;5051233;28;20199;-69
2022/06/11 06:40:17;;;;;;;20.45;5.35;;;;;;;;;;5051011;28;20044;-69
2022/06/11 06:42:42;;;;;;;15.88;5.03;;;;;;;;;;5049611;28;20041;-69
2022/06/11 06:45:09;;;;;;;19.27;5.43;;;;;;;;;;5051062;28;20048;-69
2022/06/11 06:47:35;;;;;;;21.25;5.43;;;;;;;;;;5062396;28;20044;-69
2022/06/11 06:50:01;;;;;;;15.90;4.68;;;;;;;;;;5067329;28;20040;-71
2022/06/11 06:52:27;;;;;;;14.77;4.63;;;;;;;;;;5066069;28;20044;-70
2022/06/11 06:54:53;;;;;;;19.15;4.82;;;;;;;;;;5065830;28;20265;-71
2022/06/11 06:57:19;;;;;;;20.50;4.80;;;;;;;;;;5065189;28;20102;-70
2022/06/11 06:59:45;;;;;;;22.13;4.43;;;;;;;;;;5062271;28;20400;-71
2022/06/11 07:02:13;;;;;;;21.85;5.45;;;;;;;;;;5064883;28;20064;-70
2022/06/11 07:04:40;;;;;;;16.95;5.15;;;;;;;;;;5066459;28;20085;-70
2022/06/11 07:07:06;;;;;;;18.35;5.20;;;;;;;;;;5065721;28;20423;-69
2022/06/11 07:09:32;;;;;;;14.77;4.00;;;;;;;;;;5065547;28;20053;-69
2022/06/11 07:11:59;;;;;;;18.58;4.38;;;;;;;;;;5062722;28;20090;-71
2022/06/11 07:14:25;;;;;;;22.33;4.30;;;;;;;;;;5063067;28;20044;-69
2022/06/11 07:16:56;;;;;;;15.98;4.57;;;;;;;;;;5066589;28;20032;-69
2022/06/11 07:19:25;;;;;;;16.45;4.50;;;;;;;;;;5064503;28;20059;-69
2022/06/11 07:21:51;;;;;;;;;;;;;;;;;;5066595;28;20119;-69
2022/06/11 07:24:19;;;;;;;26.02;5.78;;;;;;;;;;5064033;28;19963;-69
2022/06/11 07:26:49;;;;;;;14.27;4.00;;;;;;;;;;5060555;28;20044;-70
2022/06/11 07:29:22;;;;;;;16.50;4.68;;;;;;;;;;5063693;28;20067;-69
2022/06/11 07:31:49;;;;;;;18.40;4.72;;;;;;;;;;5061828;28;20056;-69
2022/06/11 07:34:16;;;;;;;18.65;5.30;;;;;;;;;;5065308;28;20509;-69
2022/06/11 07:36:42;;;;;;;16.85;4.28;;;;;;;;;;5046014;28;20045;-69
2022/06/11 07:39:08;;;;;;;20.17;4.40;;;;;;;;;;5063248;28;20044;-69
2022/06/11 07:41:34;;;;;;;26.00;5.70;;;;;;;;;;5061187;28;20085;-69
2022/06/11 07:44:00;;;;;;;20.23;4.60;;;;;;;;;;5065303;28;20043;-69
2022/06/11 07:46:26;;;;;;;20.48;4.80;;;;;;;;;;5064707;28;20056;-69
2022/06/11 07:48:52;;;;;;;22.33;5.25;;;;;;;;;;5064024;28;20152;-69
2022/06/11 07:51:21;;;;;;;16.70;4.82;;;;;;;;;;5063989;28;20484;-69
2022/06/11 07:53:47;;;;;;;22.48;4.97;;;;;;;;;;5062757;28;20430;-69
2022/06/11 07:56:14;;;;;;;20.73;5.18;;;;;;;;;;5065531;28;20041;-69
2022/06/11 07:58:40;;;;;;;17.83;3.95;;;;;;;;;;5063970;28;20076;-69
2022/06/11 08:01:06;;;;;;;22.73;4.97;;;;;;;;;;5055919;28;20424;-69
2022/06/11 08:03:32;;;;;;;19.05;4.75;;;;;;;;;;5049578;28;20101;-69
2022/06/11 08:05:58;;;;;;;23.75;4.32;;;;;;;;;;5049686;28;20486;-69
2022/06/11 08:08:24;;;;;;;17.60;4.57;;;;;;;;;;5068944;28;20175;-69
2022/06/11 08:10:51;;;;;;;21.23;4.40;;;;;;;;;;5066141;28;20067;-70
2022/06/11 08:13:17;;;;;;;25.45;5.05;;;;;;;;;;5062388;28;20085;-70
2022/06/11 08:15:44;;;;;;;20.58;4.60;;;;;;;;;;5064156;28;20603;-69
2022/06/11 08:18:11;;;;;;;17.77;4.13;;;;;;;;;;5061119;28;20084;-68
2022/06/11 08:20:37;;;;;;;19.48;4.53;;;;;;;;;;5062428;28;20063;-68
2022/06/11 08:23:04;;;;;;;21.02;5.05;;;;;;;;;;5066386;28;20039;-68
2022/06/11 08:25:30;;;;;;;19.00;4.63;;;;;;;;;;5062621;28;20064;-69
2022/06/11 08:27:56;;;;;;;21.00;4.95;;;;;;;;;;5063974;28;20396;-68
2022/06/11 08:30:24;;;;;;;26.27;5.80;;;;;;;;;;5062825;28;20137;-68
2022/06/11 08:32:50;;;;;;;19.38;4.47;;;;;;;;;;5061795;28;20053;-68
2022/06/11 08:35:18;;;;;;;22.63;4.60;;;;;;;;;;5064326;28;20044;-68
2022/06/11 08:37:44;;;;;;;18.52;4.68;;;;;;;;;;5064217;28;20391;-69
2022/06/11 08:40:29;;;;;;;23.35;5.50;;;;;;;;;;5064706;28;20048;-69
2022/06/11 08:43:00;;;;;;;19.25;4.72;;;;;;;;;;5061538;28;20040;-69
2022/06/11 08:45:46;;;;;;;19.25;4.50;;;;;;;;;;5063973;28;20102;-69
2022/06/11 08:48:27;;;;;;;20.42;4.82;;;;;;;;;;5064694;28;20398;-68
2022/06/11 08:51:05;;;;;;;21.45;4.65;;;;;;;;;;5063972;28;20048;-68
2022/06/11 08:53:33;;;;;;;21.95;5.05;;;;;;;;;;5063129;28;20055;-68
2022/06/11 08:55:59;;;;;;;26.08;5.25;;;;;;;;;;5063447;28;20439;-67
2022/06/11 08:58:25;;;;;;;21.73;4.55;;;;;;;;;;5061991;28;20044;-69
2022/06/11 09:00:59;;;;;;;23.55;5.28;;;;;;;;;;5063844;28;20040;-69
2022/06/11 09:03:39;;;;;;;17.95;4.18;;;;;;;;;;5065797;28;20501;-69
2022/06/11 09:06:13;;;;;;;21.95;4.68;;;;;;;;;;5062590;28;20087;-68
2022/06/11 09:08:42;;;;;;;19.73;4.28;;;;;;;;;;5061240;28;20052;-69
2022/06/11 09:11:11;;;;;;;18.45;4.22;;;;;;;;;;5061706;28;20123;-69
2022/06/11 09:13:57;;;;;;;19.73;4.57;;;;;;;;;;5060033;28;20055;-68
2022/06/11 09:16:32;;;;;;;23.02;4.72;;;;;;;;;;5062002;28;20530;-68
2022/06/11 09:19:01;;;;;;;21.05;4.47;;;;;;;;;;5053755;28;20048;-68
2022/06/11 09:21:27;;;;;;;19.27;4.72;;;;;;;;;;5048821;28;20041;-69
2022/06/11 09:24:06;;;;;;;20.02;4.20;;;;;;;;;;5047665;28;20456;-69
2022/06/11 09:26:51;;;;;;;23.20;5.22;;;;;;;;;;5049090;28;20053;-68
2022/06/11 09:29:23;;;;;;;16.73;4.07;;;;;;;;;;5063814;28;20049;-68
2022/06/11 09:31:49;;;;;;;20.48;4.30;;;;;;;;;;5062026;28;20052;-69
2022/06/11 09:34:17;;;;;;;19.95;4.22;;;;;;;;;;5051483;28;20047;-68
2022/06/11 09:36:49;;;;;;;18.73;3.80;;;;;;;;;;5055047;28;20107;-69
2022/06/11 09:39:22;;;;;;;21.23;4.25;;;;;;;;;;5039147;28;20041;-68
2022/06/11 09:42:08;;;;;;;16.77;3.80;;;;;;;;;;5052948;28;20489;-68
2022/06/11 09:44:55;;;;;;;21.58;3.95;;;;;;;;;;5057883;28;20065;-68
2022/06/11 09:47:30;;;;;;;20.63;3.70;;;;;;;;;;5066478;28;20045;-68
2022/06/11 09:50:04;;;;;;;26.05;6.63;;;;;;;;;;5071481;28;20485;-69
2022/06/11 09:52:37;;;;;;;19.65;3.70;;;;;;;;;;5053339;28;20094;-68
2022/06/11 09:55:06;;;;;;;16.98;3.90;;;;;;;;;;5074511;28;20048;-69
2022/06/11 09:57:39;;;;;;;15.65;3.95;;;;;;;;;;5074047;28;20045;-68
2022/06/11 10:00:15;;;;;;;17.40;3.53;;;;;;;;;;5074047;28;20044;-68
2022/06/11 10:03:10;;;;;;;18.27;3.42;;;;;;;;;;5069718;28;20512;-68
2022/06/11 10:05:36;;;;;;;17.50;3.78;;;;;;;;;;5070479;28;20089;-68
2022/06/11 10:08:08;;;;;;;17.77;3.25;;;;;;;;;;5069443;28;20079;-68
2022/06/11 10:10:38;;;;;;;16.85;3.17;;;;;;;;;;5069295;28;20059;-68
2022/06/11 10:13:14;;;;;;;14.88;3.63;;;;;;;;;;5069749;28;20296;-69
2022/06/11 10:15:42;;;;;;;16.08;3.60;;;;;;;;;;5070849;28;20090;-69
2022/06/11 10:18:15;;;;;;;12.30;3.25;;;;;;;;;;5069905;28;20401;-68
2022/06/11 10:20:44;;;;;;;16.85;3.58;;;;;;;;;;5070833;28;20162;-68
2022/06/11 10:23:19;;;;;;;11.85;2.83;;;;;;;;;;5069105;28;20531;-68
2022/06/11 10:25:52;;;;;;;13.10;2.53;;;;;;;;;;5068965;28;20060;-68
2022/06/11 10:28:22;;;;;;;12.57;3.03;;;;;;;;;;5064748;28;20123;-69
2022/06/11 10:30:57;;;;;;;17.73;3.80;;;;;;;;;;5070389;28;20052;-68
2022/06/11 10:33:43;;;;;;;13.50;2.63;;;;;;;;;;5069131;28;20048;-68
2022/06/11 10:36:30;;;;;;;10.70;2.70;;;;;;;;;;5058825;28;20057;-68
2022/06/11 10:38:58;;;;;;;12.23;2.72;;;;;;;;;;5068907;28;20550;-68
2022/06/11 10:41:24;;;;;;;;;;;;;;;;;;5070938;28;20491;-68
2022/06/11 10:44:02;;;;;;;12.43;2.97;;;;;;;;;;5068698;28;19920;-68
2022/06/11 10:46:29;;;;;;;16.75;3.30;;;;;;;;;;5068965;28;20044;-68
2022/06/11 10:48:55;;;;;;;9.95;2.40;;;;;;;;;;5069364;28;20241;-68
2022/06/11 10:51:25;;;;;;;13.55;2.60;;;;;;;;;;5069901;28;20045;-68
2022/06/11 10:53:58;;;;;;;13.95;2.47;;;;;;;;;;5068846;28;20045;-68
2022/06/11 10:56:35;;;;;;;11.98;2.70;;;;;;;;;;5049771;28;20076;-68
2022/06/11 10:59:03;;;;;;;11.82;2.70;;;;;;;;;;5051060;28;20188;-69
2022/06/11 11:01:32;;;;;;;10.45;2.55;;;;;;;;;;5049286;28;20049;-68
2022/06/11 11:04:06;;;;;;;9.82;2.10;;;;;;;;;;5051014;28;20064;-69
2022/06/11 11:06:34;;;;;;;11.52;2.40;;;;;;;;;;5048974;28;20469;-69
2022/06/11 11:09:07;;;;;;;11.88;2.83;;;;;;;;;;5049233;28;20053;-68
2022/06/11 11:11:39;;;;;;;14.02;2.90;;;;;;;;;;5050361;28;20182;-68
2022/06/11 11:14:18;;;;;;;11.52;2.60;;;;;;;;;;5065964;28;20131;-69
2022/06/11 11:16:48;;;;;;;11.07;2.40;;;;;;;;;;5068117;28;20056;-68
2022/06/11 11:19:25;;;;;;;8.23;2.30;;;;;;;;;;5068446;28;20485;-69
2022/06/11 11:21:57;;;;;;;10.85;2.63;;;;;;;;;;5048589;28;20076;-68
2022/06/11 11:24:29;;;;;;;13.38;2.22;;;;;;;;;;5062027;28;20064;-69
2022/06/11 11:26:58;;;;;;;10.80;2.83;;;;;;;;;;5068496;28;20123;-68
2022/06/11 11:29:32;;;;;;;10.48;2.78;;;;;;;;;;5061514;28;20064;-69
2022/06/11 11:32:02;;;;;;;13.77;2.95;;;;;;;;;;5056333;28;20044;-69
2022/06/11 11:34:29;;;;;;;10.85;2.63;;;;;;;;;;5064222;28;20048;-70
2022/06/11 11:37:13;;;;;;;13.98;3.08;;;;;;;;;;5065615;28;20094;-69
2022/06/11 11:39:48;;;;;;;11.00;2.55;;;;;;;;;;5054268;28;20041;-69
2022/06/11 11:42:18;;;;;;;15.43;2.63;;;;;;;;;;5050410;28;20462;-69
2022/06/11 11:44:51;;;;;;;14.18;2.65;;;;;;;;;;5049733;28;20051;-69
2022/06/11 11:47:30;;;;;;;19.25;5.05;;;;;;;;;;5032723;28;20056;-70
2022/06/11 11:50:04;;;;;;;11.30;2.78;;;;;;;;;;5062753;28;20496;-69
2022/06/11 11:52:30;;;;;;;14.80;3.40;;;;;;;;;;5067556;28;20090;-69
2022/06/11 11:55:11;;;;;;;11.95;2.67;;;;;;;;;;5069120;28;20270;-69
2022/06/11 11:57:37;;;;;;;11.80;2.70;;;;;;;;;;5067410;28;20051;-69
2022/06/11 12:00:04;;;;;;;11.65;2.40;;;;;;;;;;5067460;28;20052;-69
2022/06/11 12:02:47;;;;;;;12.77;3.13;;;;;;;;;;5058836;28;20508;-69
2022/06/11 12:05:23;;;;;;;11.95;3.10;;;;;;;;;;5049502;28;20068;-70
2022/06/11 12:07:50;;;;;;;12.65;3.10;;;;;;;;;;5048279;28;20044;-69
2022/06/11 12:10:19;;;;;;;13.05;3.17;;;;;;;;;;5031729;28;20041;-69
2022/06/11 12:12:48;;;;;;;14.10;3.20;;;;;;;;;;5049583;28;20406;-69
2022/06/11 12:15:20;;;;;;;10.23;2.47;;;;;;;;;;5048801;28;20053;-69
2022/06/11 12:18:06;;;;;;;11.70;2.58;;;;;;;;;;5053803;28;20119;-70
2022/06/11 12:20:35;;;;;;;11.63;2.65;;;;;;;;;;5063310;28;20044;-69
2022/06/11 12:23:04;;;;;;;9.85;2.63;;;;;;;;;;5067308;28;20448;-69
2022/06/11 12:25:39;;;;;;;12.55;2.60;;;;;;;;;;5059695;28;20053;-69
2022/06/11 12:28:09;;;;;;;14.48;3.90;;;;;;;;;;5049834;28;20046;-69
2022/06/11 12:30:35;;;;;;;10.20;2.65;;;;;;;;;;5047802;28;20064;-69
2022/06/11 12:33:01;;;;;;;15.50;3.35;;;;;;;;;;5047855;28;20126;-69
2022/06/11 12:35:27;;;;;;;11.88;2.97;;;;;;;;;;5049404;28;20573;-71
2022/06/11 12:38:00;;;;;;;11.02;2.55;;;;;;;;;;5049841;28;20047;-69
2022/06/11 12:40:29;;;;;;;15.13;3.42;;;;;;;;;;5033370;28;20663;-69
2022/06/11 12:42:58;;;;;;;11.88;2.75;;;;;;;;;;5059265;28;20048;-69
2022/06/11 12:45:43;;;;;;;12.88;2.67;;;;;;;;;;5048624;28;20485;-69
2022/06/11 12:48:15;;;;;;;14.40;3.20;;;;;;;;;;5047527;28;20051;-69
2022/06/11 12:50:45;;;;;;;12.98;2.70;;;;;;;;;;5047715;28;20099;-70
2022/06/11 12:53:11;;;;;;;14.57;3.03;;;;;;;;;;5049126;28;20053;-69
2022/06/11 12:55:43;;;;;;;15.25;3.67;;;;;;;;;;5055170;28;20045;-69
2022/06/11 12:58:28;;;;;;;13.07;2.85;;;;;;;;;;5061750;28;20037;-70
2022/06/11 13:01:00;;;;;;;15.98;3.22;;;;;;;;;;5064316;28;20040;-70
2022/06/11 13:03:26;;;;;;;16.58;3.00;;;;;;;;;;5059367;28;20036;-70
2022/06/11 13:05:58;;;;;;;17.10;3.50;;;;;;;;;;5052521;28;20155;-70
2022/06/11 13:08:24;;;;;;;9.98;2.42;;;;;;;;;;5055461;28;20048;-70
2022/06/11 13:10:56;;;;;;;11.75;2.80;;;;;;;;;;5063199;28;20048;-69
2022/06/11 13:13:28;;;;;;;10.27;2.53;;;;;;;;;;5064947;28;20041;-69
2022/06/11 13:16:01;;;;;;;11.73;2.83;;;;;;;;;;5069196;28;20087;-68
2022/06/11 13:18:36;;;;;;;14.27;3.08;;;;;;;;;;5063788;28;20049;-70
2022/06/11 13:21:18;;;;;;;13.65;3.35;;;;;;;;;;5065795;28;20040;-69
2022/06/11 13:23:48;;;;;;;10.15;2.55;;;;;;;;;;5051771;28;20057;-70
2022/06/11 13:29:05;;;;;;;9.68;2.60;;;;;;;;;;5034425;27;1233201;-70
2022/06/11 13:31:40;;;;;;;12.85;2.95;;;;;;;;;;5051134;28;20451;-70
2022/06/11 13:34:21;;;;;;;11.23;3.10;;;;;;;;;;5064827;28;20037;-70
2022/06/11 13:37:06;;;;;;;9.70;2.60;;;;;;;;;;5065280;28;20032;-69
2022/06/11 13:39:32;;;;;;;10.57;3.00;;;;;;;;;;5047442;28;20106;-69
2022/06/11 13:42:17;;;;;;;11.73;2.65;;;;;;;;;;5056457;28;20392;-70
2022/06/11 13:44:43;;;;;;;12.85;2.85;;;;;;;;;;5051091;28;20086;-69
2022/06/11 13:47:23;;;;;;;12.70;3.30;;;;;;;;;;5056136;28;20044;-69
2022/06/11 13:50:01;;;;;;;13.07;3.10;;;;;;;;;;5058462;28;20464;-70
2022/06/11 13:55:22;;;;;;;11.63;3.00;;;;;;;;;;5062532;28;20045;-69
2022/06/11 13:58:04;;;;;;;10.15;2.70;;;;;;;;;;5065481;28;20045;-69
2022/06/11 14:00:56;;;;;;;10.50;2.60;;;;;;;;;;5056684;28;20041;-69
2022/06/11 14:03:22;;;;;;;11.65;2.83;;;;;;;;;;5061320;28;20057;-69
2022/06/11 14:05:49;;;;;;;8.85;2.33;;;;;;;;;;5065719;28;20428;-70
2022/06/11 14:08:16;;;;;;;13.73;3.42;;;;;;;;;;5065407;28;20048;-70
2022/06/11 14:10:47;;;;;;;12.07;3.17;;;;;;;;;;5065033;28;20508;-70
2022/06/11 14:13:33;;;;;;;13.90;3.13;;;;;;;;;;5064446;28;20501;-69
2022/06/11 14:16:19;;;;;;;14.15;3.70;;;;;;;;;;5064905;28;20053;-69
2022/06/11 14:18:45;;;;;;;10.48;2.55;;;;;;;;;;5051093;28;20485;-69
2022/06/11 14:21:30;;;;;;;9.48;2.50;;;;;;;;;;5046120;28;20045;-69
2022/06/11 14:23:56;;;;;;;15.48;3.60;;;;;;;;;;5060085;28;20040;-69
2022/06/11 14:26:23;;;;;;;13.48;3.38;;;;;;;;;;5065107;28;20098;-70
2022/06/11 14:28:54;;;;;;;12.45;2.88;;;;;;;;;;5066289;28;20182;-70
2022/06/11 14:31:21;;;;;;;16.63;3.60;;;;;;;;;;5058811;28;20041;-70
2022/06/11 14:34:06;;;;;;;10.35;3.00;;;;;;;;;;5047613;28;20435;-70
2022/06/11 14:36:32;;;;;;;11.50;3.00;;;;;;;;;;5030993;28;20080;-70
2022/06/11 14:38:59;;;;;;;12.80;2.97;;;;;;;;;;5040885;28;20444;-70
2022/06/11 14:41:28;;;;;;;14.77;3.47;;;;;;;;;;5034730;28;20123;-70
2022/06/11 14:43:55;;;;;;;10.63;3.20;;;;;;;;;;5034069;28;20047;-70
2022/06/11 14:46:24;;;;;;;10.93;2.93;;;;;;;;;;5034446;28;20048;-70
2022/06/11 14:48:52;;;;;;;9.30;2.63;;;;;;;;;;5034022;28;20060;-70
2022/06/11 14:51:18;;;;;;;9.15;2.75;;;;;;;;;;5035236;28;20545;-70
2022/06/11 14:53:58;;;;;;;10.75;2.97;;;;;;;;;;5034290;28;20071;-70
2022/06/11 14:56:34;;;;;;;11.60;2.67;;;;;;;;;;5034387;28;20404;-69